EJU97SJ EDDH-LFSB
Flight info
| Callsign | EJU97SJ |
|---|---|
| Flight time | 1h 6m |
| Altitude | 35000 |
| Route | IDEKO7G/33 IDEKO N850 NIE DCT OTMON/N0452F340 DCT SWALM DCT OMOGI/N0455F350 T721 SUNEG T715 RIGVI |
| Aircraft | A320/M-SDE3FGHIRWY/LB1 |
Departure
| Time | 2026-05-06 15:44 |
|---|---|
| Airport | Hamburg Helmut Schmidt Airport (EDDH) |
Arrival
| Time | 2026-05-06 16:51 |
|---|---|
| Airport | EuroAirport Basel–Mulhouse–Freiburg (LFSB) |
| Time | Latitude | Longitude | Altitude | Speed | Heading |
|---|---|---|---|---|---|
| 2026-05-06 14:52 | 53.63073 | 10.00383 | 46 ft | 0 kts | 93° |
| 2026-05-06 14:53 | 53.63111 | 10.00375 | 49 ft | 0 kts | 87° |
| 2026-05-06 15:27 | 53.63111 | 10.00373 | 51 ft | 2 kts | 87° |
| 2026-05-06 15:27 | 53.63111 | 10.00334 | 49 ft | 4 kts | 95° |
| 2026-05-06 15:27 | 53.63112 | 10.00315 | 46 ft | 1 kts | 99° |
| 2026-05-06 15:28 | 53.63114 | 10.00290 | 46 ft | 0 kts | 163° |
| 2026-05-06 15:28 | 53.63115 | 10.00288 | 46 ft | 0 kts | 180° |
| 2026-05-06 15:31 | 53.63112 | 10.00288 | 46 ft | 2 kts | 179° |
| 2026-05-06 15:31 | 53.63084 | 10.00279 | 50 ft | 4 kts | 194° |
| 2026-05-06 15:32 | 53.63048 | 10.00242 | 49 ft | 3 kts | 216° |
| 2026-05-06 15:32 | 53.63015 | 10.00207 | 50 ft | 6 kts | 212° |
| 2026-05-06 15:32 | 53.62980 | 10.00170 | 51 ft | 7 kts | 212° |
| 2026-05-06 15:32 | 53.62943 | 10.00131 | 51 ft | 7 kts | 212° |
| 2026-05-06 15:33 | 53.62897 | 10.00081 | 50 ft | 9 kts | 214° |
| 2026-05-06 15:33 | 53.62858 | 10.00006 | 52 ft | 8 kts | 240° |
| 2026-05-06 15:33 | 53.62844 | 9.99964 | 52 ft | 0 kts | 242° |
| 2026-05-06 15:40 | 53.62839 | 9.99947 | 51 ft | 4 kts | 242° |
| 2026-05-06 15:41 | 53.62821 | 9.99892 | 53 ft | 7 kts | 242° |
| 2026-05-06 15:41 | 53.62813 | 9.99802 | 53 ft | 9 kts | 298° |
| 2026-05-06 15:41 | 53.62834 | 9.99771 | 52 ft | 0 kts | 328° |
| 2026-05-06 15:43 | 53.62934 | 9.99679 | 53 ft | 51 kts | 332° |
| 2026-05-06 15:43 | 53.63460 | 9.99228 | 53 ft | 116 kts | 333° |
| 2026-05-06 15:44 | 53.64342 | 9.98467 | 87 ft | 163 kts | 336° |
| 2026-05-06 15:44 | 53.65370 | 9.97554 | 655 ft | 168 kts | 336° |
| 2026-05-06 15:44 | 53.66414 | 9.96666 | 1427 ft | 170 kts | 339° |
| 2026-05-06 15:44 | 53.67533 | 9.95732 | 1823 ft | 191 kts | 339° |
| 2026-05-06 15:45 | 53.68786 | 9.94687 | 2240 ft | 207 kts | 339° |
| 2026-05-06 15:45 | 53.70085 | 9.93575 | 2924 ft | 212 kts | 336° |
| 2026-05-06 15:45 | 53.71165 | 9.91792 | 3545 ft | 230 kts | 301° |
| 2026-05-06 15:45 | 53.71435 | 9.89038 | 4027 ft | 254 kts | 262° |
| 2026-05-06 15:46 | 53.70982 | 9.86042 | 4519 ft | 274 kts | 253° |
| 2026-05-06 15:46 | 53.70363 | 9.82940 | 5316 ft | 282 kts | 251° |
| 2026-05-06 15:46 | 53.69697 | 9.79814 | 6272 ft | 284 kts | 251° |
| 2026-05-06 15:46 | 53.69022 | 9.76657 | 7127 ft | 288 kts | 251° |
| 2026-05-06 15:47 | 53.68350 | 9.73450 | 7991 ft | 291 kts | 251° |
| 2026-05-06 15:47 | 53.67689 | 9.70212 | 8895 ft | 294 kts | 251° |
| 2026-05-06 15:47 | 53.67033 | 9.66943 | 9836 ft | 295 kts | 251° |
| 2026-05-06 15:47 | 53.66277 | 9.63772 | 10589 ft | 298 kts | 240° |
| 2026-05-06 15:48 | 53.65030 | 9.60841 | 10903 ft | 319 kts | 224° |
| 2026-05-06 15:48 | 53.63218 | 9.58508 | 11125 ft | 339 kts | 206° |
| 2026-05-06 15:48 | 53.60960 | 9.57142 | 11525 ft | 350 kts | 188° |
| 2026-05-06 15:48 | 53.58533 | 9.56640 | 12259 ft | 353 kts | 185° |
| 2026-05-06 15:49 | 53.56077 | 9.56165 | 13004 ft | 356 kts | 185° |
| 2026-05-06 15:49 | 53.53616 | 9.55672 | 13815 ft | 357 kts | 186° |
| 2026-05-06 15:49 | 53.51133 | 9.55168 | 14490 ft | 359 kts | 186° |
| 2026-05-06 15:49 | 53.48640 | 9.54664 | 15193 ft | 362 kts | 187° |
| 2026-05-06 15:50 | 53.46126 | 9.54163 | 15830 ft | 366 kts | 187° |
| 2026-05-06 15:50 | 53.43590 | 9.53661 | 16469 ft | 369 kts | 187° |
| 2026-05-06 15:50 | 53.41029 | 9.53157 | 17081 ft | 372 kts | 187° |
| 2026-05-06 15:50 | 53.38445 | 9.52654 | 17723 ft | 375 kts | 187° |
| 2026-05-06 15:51 | 53.35836 | 9.52146 | 18321 ft | 379 kts | 187° |
| 2026-05-06 15:51 | 53.33205 | 9.51630 | 18882 ft | 382 kts | 187° |
| 2026-05-06 15:51 | 53.30547 | 9.51108 | 19431 ft | 386 kts | 187° |
| 2026-05-06 15:51 | 53.27867 | 9.50583 | 19990 ft | 390 kts | 187° |
| 2026-05-06 15:52 | 53.25167 | 9.50057 | 20527 ft | 392 kts | 187° |
| 2026-05-06 15:52 | 53.22447 | 9.49529 | 21062 ft | 395 kts | 187° |
| 2026-05-06 15:52 | 53.19739 | 9.49001 | 21574 ft | 398 kts | 187° |
| 2026-05-06 15:52 | 53.16980 | 9.48462 | 22050 ft | 401 kts | 187° |
| 2026-05-06 15:53 | 53.14196 | 9.47918 | 22538 ft | 404 kts | 187° |
| 2026-05-06 15:53 | 53.11385 | 9.47374 | 23023 ft | 408 kts | 187° |
| 2026-05-06 15:53 | 53.08555 | 9.46827 | 23522 ft | 411 kts | 187° |
| 2026-05-06 15:53 | 53.05710 | 9.46278 | 23930 ft | 412 kts | 186° |
| 2026-05-06 15:54 | 53.02852 | 9.45724 | 24298 ft | 415 kts | 186° |
| 2026-05-06 15:54 | 52.99976 | 9.45161 | 24673 ft | 418 kts | 186° |
| 2026-05-06 15:54 | 52.97077 | 9.44583 | 25002 ft | 421 kts | 187° |
| 2026-05-06 15:54 | 52.94170 | 9.43971 | 25380 ft | 422 kts | 187° |
| 2026-05-06 15:55 | 52.91249 | 9.43335 | 25790 ft | 423 kts | 187° |
| 2026-05-06 15:55 | 52.88326 | 9.42692 | 26097 ft | 426 kts | 187° |
| 2026-05-06 15:55 | 52.85375 | 9.42048 | 26372 ft | 430 kts | 188° |
| 2026-05-06 15:55 | 52.82392 | 9.41401 | 26689 ft | 432 kts | 188° |
| 2026-05-06 15:56 | 52.79402 | 9.40762 | 27007 ft | 434 kts | 188° |
| 2026-05-06 15:56 | 52.76407 | 9.40131 | 27358 ft | 435 kts | 188° |
| 2026-05-06 15:56 | 52.73395 | 9.39502 | 27642 ft | 438 kts | 188° |
| 2026-05-06 15:56 | 52.70360 | 9.38866 | 27882 ft | 441 kts | 188° |
| 2026-05-06 15:57 | 52.67306 | 9.38222 | 28187 ft | 443 kts | 188° |
| 2026-05-06 15:57 | 52.64249 | 9.37578 | 28484 ft | 444 kts | 188° |
| 2026-05-06 15:57 | 52.61165 | 9.37183 | 28751 ft | 447 kts | 182° |
| 2026-05-06 15:57 | 52.58050 | 9.37116 | 29003 ft | 448 kts | 182° |
| 2026-05-06 15:58 | 52.54926 | 9.37051 | 29243 ft | 450 kts | 182° |
| 2026-05-06 15:58 | 52.51798 | 9.36982 | 29565 ft | 449 kts | 182° |
| 2026-05-06 15:58 | 52.48715 | 9.36915 | 29905 ft | 449 kts | 182° |
| 2026-05-06 15:58 | 52.45596 | 9.36848 | 30208 ft | 448 kts | 182° |
| 2026-05-06 15:59 | 52.42484 | 9.36783 | 30522 ft | 446 kts | 182° |
| 2026-05-06 15:59 | 52.39383 | 9.36719 | 30817 ft | 445 kts | 182° |
| 2026-05-06 15:59 | 52.36309 | 9.36659 | 31151 ft | 443 kts | 182° |
| 2026-05-06 15:59 | 52.33222 | 9.36598 | 31488 ft | 441 kts | 182° |
| 2026-05-06 16:00 | 52.30155 | 9.36532 | 31815 ft | 439 kts | 183° |
| 2026-05-06 16:00 | 52.27103 | 9.36466 | 32145 ft | 438 kts | 183° |
| 2026-05-06 16:00 | 52.24060 | 9.36401 | 32461 ft | 436 kts | 183° |
| 2026-05-06 16:00 | 52.21029 | 9.36337 | 32781 ft | 435 kts | 183° |
| 2026-05-06 16:01 | 52.18007 | 9.36270 | 33094 ft | 434 kts | 183° |
| 2026-05-06 16:01 | 52.14989 | 9.36205 | 33406 ft | 433 kts | 183° |
| 2026-05-06 16:01 | 52.11983 | 9.36142 | 33752 ft | 431 kts | 183° |
| 2026-05-06 16:01 | 52.08991 | 9.36082 | 34040 ft | 430 kts | 183° |
| 2026-05-06 16:02 | 52.06041 | 9.36020 | 34271 ft | 429 kts | 183° |
| 2026-05-06 16:02 | 52.03055 | 9.35955 | 34502 ft | 429 kts | 183° |
| 2026-05-06 16:02 | 52.00069 | 9.35890 | 34718 ft | 430 kts | 183° |
| 2026-05-06 16:02 | 51.97073 | 9.35826 | 34801 ft | 430 kts | 183° |
| 2026-05-06 16:03 | 51.91068 | 9.35707 | 34808 ft | 431 kts | 183° |
| 2026-05-06 16:03 | 51.85066 | 9.35586 | 34813 ft | 431 kts | 183° |
| 2026-05-06 16:04 | 51.79072 | 9.35451 | 34814 ft | 431 kts | 183° |
| 2026-05-06 16:04 | 51.73067 | 9.35328 | 34808 ft | 431 kts | 183° |
| 2026-05-06 16:05 | 51.67068 | 9.35210 | 34795 ft | 431 kts | 183° |
| 2026-05-06 16:05 | 51.61115 | 9.35086 | 34793 ft | 430 kts | 183° |
| 2026-05-06 16:06 | 51.55128 | 9.34961 | 34793 ft | 430 kts | 183° |
| 2026-05-06 16:06 | 51.49146 | 9.34846 | 34790 ft | 430 kts | 183° |
| 2026-05-06 16:07 | 51.43161 | 9.34725 | 34775 ft | 430 kts | 183° |
| 2026-05-06 16:07 | 51.37184 | 9.34603 | 34779 ft | 429 kts | 183° |
| 2026-05-06 16:08 | 51.31206 | 9.34477 | 34792 ft | 430 kts | 183° |
| 2026-05-06 16:08 | 51.25290 | 9.33480 | 34794 ft | 427 kts | 190° |
| 2026-05-06 16:09 | 51.19414 | 9.32051 | 34792 ft | 427 kts | 191° |
| 2026-05-06 16:09 | 51.13566 | 9.30618 | 34796 ft | 427 kts | 191° |
| 2026-05-06 16:10 | 51.07685 | 9.29192 | 34794 ft | 428 kts | 190° |
| 2026-05-06 16:10 | 51.01798 | 9.27770 | 34793 ft | 428 kts | 190° |
| 2026-05-06 16:11 | 50.95907 | 9.26343 | 34803 ft | 429 kts | 190° |
| 2026-05-06 16:11 | 50.90007 | 9.24925 | 34804 ft | 427 kts | 190° |
| 2026-05-06 16:12 | 50.84132 | 9.23522 | 34803 ft | 427 kts | 190° |
| 2026-05-06 16:12 | 50.78267 | 9.22116 | 34793 ft | 426 kts | 190° |
| 2026-05-06 16:13 | 50.72408 | 9.20717 | 34789 ft | 426 kts | 190° |
| 2026-05-06 16:13 | 50.66536 | 9.19403 | 34787 ft | 426 kts | 189° |
| 2026-05-06 16:14 | 50.60650 | 9.18218 | 34786 ft | 426 kts | 189° |
| 2026-05-06 16:14 | 50.54771 | 9.17036 | 34785 ft | 426 kts | 189° |
| 2026-05-06 16:15 | 50.48926 | 9.15828 | 34783 ft | 426 kts | 189° |
| 2026-05-06 16:15 | 50.44008 | 9.14804 | 34785 ft | 425 kts | 189° |
| 2026-05-06 16:16 | 50.37186 | 9.13410 | 34786 ft | 425 kts | 189° |
| 2026-05-06 16:16 | 50.32263 | 9.12405 | 34791 ft | 425 kts | 189° |
| 2026-05-06 16:17 | 50.26391 | 9.11196 | 34783 ft | 425 kts | 189° |
| 2026-05-06 16:17 | 50.20521 | 9.09991 | 34788 ft | 425 kts | 189° |
| 2026-05-06 16:18 | 50.14686 | 9.08807 | 34791 ft | 426 kts | 188° |
| 2026-05-06 16:18 | 50.08807 | 9.07615 | 34796 ft | 426 kts | 189° |
| 2026-05-06 16:19 | 50.02932 | 9.06420 | 34799 ft | 425 kts | 188° |
| 2026-05-06 16:19 | 49.97066 | 9.05232 | 34805 ft | 424 kts | 188° |
| 2026-05-06 16:20 | 49.91211 | 9.04051 | 34806 ft | 424 kts | 189° |
| 2026-05-06 16:20 | 49.85361 | 9.02869 | 34808 ft | 423 kts | 188° |
| 2026-05-06 16:21 | 49.79510 | 9.01705 | 34795 ft | 424 kts | 188° |
| 2026-05-06 16:21 | 49.73655 | 9.00535 | 34792 ft | 424 kts | 188° |
| 2026-05-06 16:22 | 49.67802 | 8.99360 | 34790 ft | 424 kts | 188° |
| 2026-05-06 16:22 | 49.61990 | 8.98080 | 34793 ft | 424 kts | 191° |
| 2026-05-06 16:23 | 49.56196 | 8.96447 | 34795 ft | 423 kts | 192° |
| 2026-05-06 16:23 | 49.50428 | 8.94755 | 34802 ft | 422 kts | 192° |
| 2026-05-06 16:24 | 49.44640 | 8.93134 | 34803 ft | 422 kts | 191° |
| 2026-05-06 16:24 | 49.38851 | 8.91568 | 34804 ft | 422 kts | 191° |
| 2026-05-06 16:25 | 49.33068 | 8.90006 | 34805 ft | 422 kts | 191° |
| 2026-05-06 16:25 | 49.27284 | 8.88431 | 34805 ft | 422 kts | 191° |
| 2026-05-06 16:26 | 49.21582 | 8.86424 | 34800 ft | 421 kts | 201° |
| 2026-05-06 16:26 | 49.16568 | 8.81898 | 34801 ft | 420 kts | 220° |
| 2026-05-06 16:27 | 49.12214 | 8.75934 | 34808 ft | 420 kts | 220° |
| 2026-05-06 16:27 | 49.07848 | 8.70000 | 34812 ft | 420 kts | 220° |
| 2026-05-06 16:28 | 49.03472 | 8.64078 | 34820 ft | 420 kts | 220° |
| 2026-05-06 16:28 | 48.99087 | 8.58166 | 34826 ft | 420 kts | 219° |
| 2026-05-06 16:29 | 48.94505 | 8.52665 | 34835 ft | 419 kts | 216° |
| 2026-05-06 16:29 | 48.89784 | 8.47474 | 34835 ft | 419 kts | 215° |
| 2026-05-06 16:30 | 48.85862 | 8.43144 | 34821 ft | 420 kts | 216° |
| 2026-05-06 16:30 | 48.82757 | 8.39661 | 34433 ft | 418 kts | 216° |
| 2026-05-06 16:30 | 48.80421 | 8.37018 | 33580 ft | 420 kts | 216° |
| 2026-05-06 16:31 | 48.78070 | 8.34349 | 32319 ft | 423 kts | 215° |
| 2026-05-06 16:31 | 48.75724 | 8.31697 | 31541 ft | 419 kts | 215° |
| 2026-05-06 16:31 | 48.73375 | 8.29063 | 30526 ft | 422 kts | 214° |
| 2026-05-06 16:31 | 48.70995 | 8.26413 | 29342 ft | 427 kts | 214° |
| 2026-05-06 16:32 | 48.68587 | 8.23745 | 28168 ft | 430 kts | 214° |
| 2026-05-06 16:32 | 48.66168 | 8.21070 | 27203 ft | 429 kts | 214° |
| 2026-05-06 16:32 | 48.63783 | 8.18428 | 26549 ft | 422 kts | 214° |
| 2026-05-06 16:32 | 48.61426 | 8.15812 | 25798 ft | 419 kts | 214° |
| 2026-05-06 16:33 | 48.59085 | 8.13217 | 25071 ft | 417 kts | 214° |
| 2026-05-06 16:33 | 48.56745 | 8.10631 | 24345 ft | 415 kts | 214° |
| 2026-05-06 16:33 | 48.54417 | 8.08061 | 23635 ft | 414 kts | 214° |
| 2026-05-06 16:34 | 48.49782 | 8.02957 | 22212 ft | 409 kts | 214° |
| 2026-05-06 16:34 | 48.47495 | 8.00443 | 21560 ft | 405 kts | 214° |
| 2026-05-06 16:34 | 48.45221 | 7.97940 | 20936 ft | 402 kts | 215° |
| 2026-05-06 16:34 | 48.42992 | 7.95486 | 20347 ft | 400 kts | 215° |
| 2026-05-06 16:35 | 48.40753 | 7.93028 | 19749 ft | 398 kts | 215° |
| 2026-05-06 16:35 | 48.38450 | 7.90653 | 19187 ft | 394 kts | 208° |
| 2026-05-06 16:35 | 48.35983 | 7.88929 | 18660 ft | 389 kts | 199° |
| 2026-05-06 16:35 | 48.33416 | 7.87909 | 18115 ft | 385 kts | 189° |
| 2026-05-06 16:36 | 48.30768 | 7.87423 | 17525 ft | 382 kts | 186° |
| 2026-05-06 16:36 | 48.28141 | 7.86984 | 17047 ft | 377 kts | 186° |
| 2026-05-06 16:36 | 48.25552 | 7.86550 | 16583 ft | 372 kts | 187° |
| 2026-05-06 16:36 | 48.22957 | 7.86110 | 16037 ft | 369 kts | 187° |
| 2026-05-06 16:37 | 48.20435 | 7.85556 | 15497 ft | 365 kts | 195° |
| 2026-05-06 16:37 | 48.18112 | 7.84090 | 14958 ft | 362 kts | 212° |
| 2026-05-06 16:37 | 48.16222 | 7.81699 | 14420 ft | 362 kts | 228° |
| 2026-05-06 16:37 | 48.14849 | 7.78478 | 13835 ft | 365 kts | 245° |
| 2026-05-06 16:38 | 48.14193 | 7.74854 | 13190 ft | 367 kts | 262° |
| 2026-05-06 16:38 | 48.14037 | 7.71066 | 12760 ft | 360 kts | 265° |
| 2026-05-06 16:38 | 48.13908 | 7.67407 | 12638 ft | 345 kts | 265° |
| 2026-05-06 16:38 | 48.13780 | 7.63935 | 12502 ft | 321 kts | 265° |
| 2026-05-06 16:39 | 48.13663 | 7.60730 | 12362 ft | 297 kts | 264° |
| 2026-05-06 16:39 | 48.13552 | 7.57756 | 12235 ft | 276 kts | 264° |
| 2026-05-06 16:39 | 48.13286 | 7.55002 | 11799 ft | 265 kts | 251° |
| 2026-05-06 16:39 | 48.12528 | 7.52514 | 11218 ft | 260 kts | 235° |
| 2026-05-06 16:40 | 48.11377 | 7.50465 | 10657 ft | 255 kts | 220° |
| 2026-05-06 16:40 | 48.09966 | 7.48980 | 10385 ft | 240 kts | 206° |
| 2026-05-06 16:40 | 48.08478 | 7.48090 | 10261 ft | 221 kts | 197° |
| 2026-05-06 16:40 | 48.07068 | 7.47419 | 10157 ft | 205 kts | 198° |
| 2026-05-06 16:41 | 48.05732 | 7.46778 | 10059 ft | 200 kts | 198° |
| 2026-05-06 16:41 | 48.04416 | 7.46144 | 9977 ft | 198 kts | 198° |
| 2026-05-06 16:41 | 48.03088 | 7.45502 | 9706 ft | 203 kts | 198° |
| 2026-05-06 16:41 | 48.01739 | 7.44854 | 9359 ft | 204 kts | 198° |
| 2026-05-06 16:42 | 48.00391 | 7.44205 | 9075 ft | 203 kts | 198° |
| 2026-05-06 16:42 | 47.99052 | 7.43556 | 8796 ft | 201 kts | 198° |
| 2026-05-06 16:42 | 47.97720 | 7.42913 | 8523 ft | 200 kts | 198° |
| 2026-05-06 16:42 | 47.96406 | 7.42279 | 8260 ft | 198 kts | 198° |
| 2026-05-06 16:43 | 47.95115 | 7.41659 | 8040 ft | 192 kts | 198° |
| 2026-05-06 16:43 | 47.93852 | 7.41055 | 7744 ft | 188 kts | 198° |
| 2026-05-06 16:43 | 47.92618 | 7.40466 | 7492 ft | 184 kts | 198° |
| 2026-05-06 16:43 | 47.91416 | 7.39892 | 7251 ft | 179 kts | 198° |
| 2026-05-06 16:44 | 47.90243 | 7.39331 | 7013 ft | 175 kts | 198° |
| 2026-05-06 16:44 | 47.89110 | 7.38788 | 6779 ft | 172 kts | 198° |
| 2026-05-06 16:44 | 47.87923 | 7.38219 | 6538 ft | 184 kts | 197° |
| 2026-05-06 16:44 | 47.86705 | 7.37634 | 6305 ft | 188 kts | 197° |
| 2026-05-06 16:45 | 47.85458 | 7.37038 | 6043 ft | 188 kts | 197° |
| 2026-05-06 16:45 | 47.84205 | 7.36454 | 5778 ft | 188 kts | 193° |
| 2026-05-06 16:45 | 47.82889 | 7.36378 | 5466 ft | 188 kts | 169° |
| 2026-05-06 16:45 | 47.81669 | 7.37053 | 5203 ft | 188 kts | 155° |
| 2026-05-06 16:46 | 47.80487 | 7.37887 | 4945 ft | 188 kts | 155° |
| 2026-05-06 16:46 | 47.79320 | 7.38708 | 4693 ft | 188 kts | 155° |
| 2026-05-06 16:46 | 47.78139 | 7.39538 | 4431 ft | 187 kts | 155° |
| 2026-05-06 16:46 | 47.76961 | 7.40364 | 4195 ft | 187 kts | 156° |
| 2026-05-06 16:47 | 47.75790 | 7.41186 | 3931 ft | 186 kts | 156° |
| 2026-05-06 16:47 | 47.74621 | 7.42005 | 3678 ft | 185 kts | 156° |
| 2026-05-06 16:47 | 47.73466 | 7.42814 | 3437 ft | 180 kts | 156° |
| 2026-05-06 16:47 | 47.72380 | 7.43576 | 3210 ft | 165 kts | 156° |
| 2026-05-06 16:48 | 47.71358 | 7.44290 | 2989 ft | 163 kts | 156° |
| 2026-05-06 16:48 | 47.70331 | 7.45008 | 2779 ft | 163 kts | 156° |
| 2026-05-06 16:48 | 47.69304 | 7.45726 | 2554 ft | 163 kts | 156° |
| 2026-05-06 16:48 | 47.68283 | 7.46440 | 2349 ft | 162 kts | 156° |
| 2026-05-06 16:49 | 47.67269 | 7.47148 | 2129 ft | 155 kts | 156° |
| 2026-05-06 16:49 | 47.66323 | 7.47809 | 1908 ft | 147 kts | 156° |
| 2026-05-06 16:49 | 47.65410 | 7.48446 | 1711 ft | 144 kts | 156° |
| 2026-05-06 16:49 | 47.64508 | 7.49075 | 1513 ft | 143 kts | 155° |
| 2026-05-06 16:50 | 47.63609 | 7.49702 | 1318 ft | 143 kts | 154° |
| 2026-05-06 16:50 | 47.62705 | 7.50332 | 1114 ft | 144 kts | 154° |
| 2026-05-06 16:50 | 47.61798 | 7.50964 | 935 ft | 144 kts | 154° |
| 2026-05-06 16:50 | 47.61233 | 7.51365 | 884 ft | 122 kts | 154° |
| 2026-05-06 16:51 | 47.60638 | 7.51782 | 887 ft | 35 kts | 155° |
| 2026-05-06 16:51 | 47.60533 | 7.51905 | 888 ft | 18 kts | 92° |
| 2026-05-06 16:51 | 47.60560 | 7.52015 | 887 ft | 9 kts | 64° |
| 2026-05-06 16:51 | 47.60575 | 7.52093 | 887 ft | 8 kts | 104° |
| 2026-05-06 16:52 | 47.60530 | 7.52142 | 886 ft | 8 kts | 155° |
| 2026-05-06 16:52 | 47.60485 | 7.52174 | 887 ft | 7 kts | 154° |
| 2026-05-06 16:52 | 47.60447 | 7.52201 | 887 ft | 5 kts | 154° |
| 2026-05-06 16:52 | 47.60418 | 7.52222 | 887 ft | 4 kts | 154° |
| 2026-05-06 16:53 | 47.60395 | 7.52238 | 887 ft | 3 kts | 154° |
| 2026-05-06 16:53 | 47.60378 | 7.52249 | 887 ft | 2 kts | 154° |
| 2026-05-06 16:53 | 47.60363 | 7.52260 | 887 ft | 4 kts | 155° |
| 2026-05-06 16:53 | 47.60320 | 7.52289 | 887 ft | 9 kts | 155° |
| 2026-05-06 16:54 | 47.60250 | 7.52338 | 887 ft | 12 kts | 155° |
| 2026-05-06 16:54 | 47.60167 | 7.52396 | 887 ft | 14 kts | 154° |
| 2026-05-06 16:54 | 47.60070 | 7.52463 | 887 ft | 16 kts | 156° |
| 2026-05-06 16:54 | 47.59963 | 7.52537 | 887 ft | 18 kts | 154° |
| 2026-05-06 16:55 | 47.59846 | 7.52618 | 887 ft | 18 kts | 154° |
| 2026-05-06 16:55 | 47.59771 | 7.52707 | 887 ft | 14 kts | 96° |
| 2026-05-06 16:55 | 47.59708 | 7.52807 | 887 ft | 14 kts | 153° |
| 2026-05-06 16:55 | 47.59657 | 7.52895 | 887 ft | 12 kts | 82° |
| 2026-05-06 16:56 | 47.59700 | 7.53010 | 886 ft | 13 kts | 36° |
| 2026-05-06 16:56 | 47.59769 | 7.53043 | 886 ft | 10 kts | 47° |
| 2026-05-06 16:56 | 47.59801 | 7.53128 | 886 ft | 9 kts | 32° |
| 2026-05-06 16:56 | 47.59834 | 7.53158 | 886 ft | 5 kts | 34° |
| 2026-05-06 16:57 | 47.59838 | 7.53162 | 886 ft | 0 kts | 39° |